Time;durP1;ratioP1;P1;durP2;ratioP2;P2;SDS_P1;SDS_P2;PMS_P1;PMS_P2;Temp;Humidity;BMP_temperature;BMP_pressure;BME280_temperature;BME280_humidity;BME280_pressure;Samples;Min_cycle;Max_cycle;Signal;HPM_P1;HPM_P2
2024/01/22 00:00:13;;;;;;;7.65;4.50;;;-2.20;65.10;;;;;;5076703;28;20196;-74
2024/01/22 00:02:41;;;;;;;8.98;5.70;;;-2.20;64.40;;;;;;5080218;28;20285;-74
2024/01/22 00:05:11;;;;;;;8.93;4.80;;;-2.20;63.80;;;;;;5096512;28;20276;-74
2024/01/22 00:07:38;;;;;;;6.25;4.10;;;-2.20;62.90;;;;;;5096301;28;20173;-74
2024/01/22 00:10:06;;;;;;;7.13;4.65;;;-2.20;61.70;;;;;;5096875;28;20235;-74
2024/01/22 00:12:33;;;;;;;5.15;4.25;;;-2.20;60.70;;;;;;5096341;28;20718;-72
2024/01/22 00:15:03;;;;;;;6.40;4.53;;;-2.30;59.90;;;;;;5086204;28;20524;-74
2024/01/22 00:17:30;;;;;;;9.70;4.57;;;-2.40;59.70;;;;;;5076270;28;20203;-74
2024/01/22 00:19:57;;;;;;;7.82;4.68;;;-2.40;59.50;;;;;;5076305;28;20230;-74
2024/01/22 00:22:25;;;;;;;8.95;5.22;;;-2.50;59.10;;;;;;5076151;28;20274;-74
2024/01/22 00:24:52;;;;;;;7.25;4.35;;;-2.60;59.00;;;;;;5076364;28;20703;-73
2024/01/22 00:27:19;;;;;;;55.40;28.60;;;-2.60;59.20;;;;;;5076323;28;20276;-73
2024/01/22 00:29:46;;;;;;;142.05;60.58;;;-2.70;59.20;;;;;;5076213;28;20277;-74
2024/01/22 00:32:13;;;;;;;34.75;17.83;;;-2.70;59.60;;;;;;5076255;28;20273;-74
2024/01/22 00:34:40;;;;;;;23.00;13.30;;;-2.70;59.80;;;;;;5084795;28;20253;-74
2024/01/22 00:37:07;;;;;;;12.77;7.50;;;-2.70;59.80;;;;;;5096303;28;20241;-74
2024/01/22 00:39:35;;;;;;;8.02;5.82;;;-2.70;60.00;;;;;;5096641;28;20232;-74
2024/01/22 00:42:02;;;;;;;8.50;5.40;;;-2.80;60.00;;;;;;5096174;28;20276;-73
2024/01/22 00:44:29;;;;;;;8.60;5.65;;;-2.80;60.00;;;;;;5088136;28;20261;-74
2024/01/22 00:46:56;;;;;;;5.90;4.93;;;-2.80;59.90;;;;;;5075915;28;20282;-74
2024/01/22 00:49:23;;;;;;;6.30;4.80;;;-2.80;59.60;;;;;;5076970;28;20265;-74
2024/01/22 00:51:50;;;;;;;7.07;4.78;;;-2.80;59.10;;;;;;5076341;28;20299;-72
2024/01/22 00:54:17;;;;;;;8.38;3.92;;;-2.90;57.30;;;;;;5076117;28;20186;-74
2024/01/22 00:56:45;;;;;;;9.40;4.35;;;-3.00;55.70;;;;;;5076016;28;20232;-74
2024/01/22 00:59:12;;;;;;;7.70;4.53;;;-3.10;55.10;;;;;;5075772;28;20281;-74
2024/01/22 01:01:39;;;;;;;8.55;4.93;;;-3.20;55.50;;;;;;5076005;28;20268;-74
2024/01/22 01:04:06;;;;;;;8.48;4.20;;;-3.30;56.50;;;;;;5079721;28;20261;-74
2024/01/22 01:06:33;;;;;;;9.27;4.85;;;-3.40;57.20;;;;;;5095855;28;20280;-74
2024/01/22 01:09:00;;;;;;;7.38;4.47;;;-3.50;57.90;;;;;;5096277;28;20277;-74
2024/01/22 01:11:27;;;;;;;8.48;4.82;;;-3.50;58.20;;;;;;5096097;28;20267;-74
2024/01/22 01:13:55;;;;;;;9.38;5.07;;;-3.50;58.40;;;;;;5096184;28;20273;-74
2024/01/22 01:16:22;;;;;;;7.35;4.22;;;-3.50;58.90;;;;;;5095661;28;20304;-74
2024/01/22 01:18:49;;;;;;;12.57;6.60;;;-3.40;59.40;;;;;;5077339;28;20272;-72
2024/01/22 01:21:16;;;;;;;9.90;4.95;;;-3.40;59.70;;;;;;5075529;28;20719;-74
2024/01/22 01:23:43;;;;;;;8.90;5.45;;;-3.40;59.70;;;;;;5075339;28;20247;-74
2024/01/22 01:26:10;;;;;;;11.23;4.22;;;-3.40;59.70;;;;;;5075726;28;20280;-74
2024/01/22 01:28:37;;;;;;;6.70;4.10;;;-3.30;59.60;;;;;;5075544;28;20599;-74
2024/01/22 01:31:06;;;;;;;8.45;5.13;;;-3.30;59.10;;;;;;5075580;28;20224;-74
2024/01/22 01:33:33;;;;;;;9.38;6.00;;;-3.40;58.40;;;;;;5092835;28;20188;-74
2024/01/22 01:36:00;;;;;;;13.70;6.18;;;-3.40;58.40;;;;;;5090253;28;20265;-74
2024/01/22 01:38:27;;;;;;;11.13;5.22;;;-3.50;58.60;;;;;;5074942;28;20302;-73
2024/01/22 01:40:54;;;;;;;13.05;5.18;;;-3.50;58.90;;;;;;5094446;28;20224;-74
2024/01/22 01:43:21;;;;;;;7.18;3.90;;;-3.40;59.40;;;;;;5095823;28;20185;-74
2024/01/22 01:45:48;;;;;;;9.55;3.22;;;-3.40;59.50;;;;;;5095717;28;20276;-74
2024/01/22 01:48:16;;;;;;;5.22;2.90;;;-3.40;59.70;;;;;;5095321;28;20280;-74
2024/01/22 01:50:44;;;;;;;7.25;2.97;;;-3.30;60.70;;;;;;5095562;28;20186;-74
2024/01/22 01:53:11;;;;;;;5.22;2.55;;;-3.30;60.70;;;;;;5094661;28;20224;-73
2024/01/22 01:55:39;;;;;;;4.32;2.50;;;-3.30;60.00;;;;;;5055155;28;20241;-73
2024/01/22 01:58:06;;;;;;;4.93;2.35;;;-3.30;59.80;;;;;;5054585;28;20851;-74
2024/01/22 02:00:34;;;;;;;6.47;2.20;;;-3.30;60.10;;;;;;5055088;28;20274;-74
2024/01/22 02:03:01;;;;;;;6.05;2.75;;;-3.30;61.40;;;;;;5055011;28;20282;-74
2024/01/22 02:05:29;;;;;;;5.43;2.45;;;-3.20;62.40;;;;;;5054994;28;20278;-74
2024/01/22 02:07:56;;;;;;;5.43;2.63;;;-3.20;62.00;;;;;;5081835;28;20269;-74
2024/01/22 02:10:23;;;;;;;6.68;3.00;;;-3.10;60.80;;;;;;5094733;28;20213;-74
2024/01/22 02:12:50;;;;;;;4.63;2.25;;;-3.20;59.70;;;;;;5095253;28;20618;-74
2024/01/22 02:15:19;;;;;;;4.47;2.55;;;-3.20;59.00;;;;;;5094917;28;20296;-74
2024/01/22 02:17:46;;;;;;;5.95;3.30;;;-3.20;58.90;;;;;;5094506;28;20608;-74
2024/01/22 02:20:13;;;;;;;10.07;2.88;;;-3.30;59.60;;;;;;5092243;28;20217;-74
2024/01/22 02:22:41;;;;;;;9.18;2.70;;;-3.30;60.50;;;;;;5092836;28;20231;-74
2024/01/22 02:25:10;;;;;;;7.00;2.50;;;-3.30;62.60;;;;;;5094610;28;20272;-74
2024/01/22 02:27:37;;;;;;;5.95;2.58;;;-3.30;62.30;;;;;;5095000;28;20638;-74
2024/01/22 02:30:06;;;;;;;6.05;2.72;;;-3.30;63.00;;;;;;5092734;28;20281;-74
2024/01/22 02:32:33;;;;;;;6.47;2.22;;;-3.30;64.10;;;;;;5094649;28;20238;-73
2024/01/22 02:35:00;;;;;;;9.52;3.40;;;-3.40;65.70;;;;;;5094302;28;20276;-73
2024/01/22 02:37:27;;;;;;;9.13;3.33;;;-3.40;66.00;;;;;;5094604;28;20292;-74
2024/01/22 02:39:54;;;;;;;13.55;3.15;;;-3.40;66.00;;;;;;5094622;28;20272;-74
2024/01/22 02:42:22;;;;;;;7.38;2.60;;;-3.40;65.60;;;;;;5094425;28;20512;-74
2024/01/22 02:44:49;;;;;;;5.82;2.28;;;-3.40;65.50;;;;;;5089746;28;20232;-74
2024/01/22 02:47:16;;;;;;;3.65;1.70;;;-3.30;65.60;;;;;;5074202;28;20193;-74
2024/01/22 02:49:43;;;;;;;5.15;1.90;;;-3.30;65.70;;;;;;5074124;28;20281;-74
2024/01/22 02:52:10;;;;;;;5.90;2.15;;;-3.20;65.90;;;;;;5073849;28;20702;-74
2024/01/22 02:54:37;;;;;;;8.48;3.92;;;-3.20;65.70;;;;;;5073616;28;20277;-74
2024/01/22 02:57:04;;;;;;;8.07;3.25;;;-3.10;65.40;;;;;;5073903;28;20296;-74
2024/01/22 02:59:36;;;;;;;11.60;4.47;;;-3.20;65.00;;;;;;5073482;28;20194;-74
2024/01/22 03:02:03;;;;;;;7.60;3.13;;;-3.20;64.70;;;;;;5074037;28;20174;-74
2024/01/22 03:04:30;;;;;;;6.70;2.60;;;-3.20;65.50;;;;;;5074142;28;20272;-74
2024/01/22 03:06:57;;;;;;;4.88;2.25;;;-3.20;64.80;;;;;;5073667;28;20769;-74
2024/01/22 03:09:24;;;;;;;5.70;2.00;;;-3.20;64.80;;;;;;5073726;28;20277;-74
2024/01/22 03:11:52;;;;;;;3.92;2.50;;;-3.10;64.90;;;;;;5073764;28;20592;-74
2024/01/22 03:14:18;;;;;;;5.45;2.08;;;-3.10;64.70;;;;;;5090724;28;20217;-74
2024/01/22 03:16:47;;;;;;;4.55;1.83;;;-3.10;63.80;;;;;;5094507;28;20300;-74
2024/01/22 03:19:14;;;;;;;2.70;1.40;;;-3.00;63.50;;;;;;5093790;28;20293;-74
2024/01/22 03:21:40;;;;;;;4.45;1.35;;;-3.00;64.10;;;;;;5094144;28;20516;-74
2024/01/22 03:24:07;;;;;;;2.40;1.20;;;-2.90;64.40;;;;;;5093909;28;20281;-74
2024/01/22 03:26:34;;;;;;;3.15;1.17;;;-2.80;64.60;;;;;;5081508;28;20285;-74
2024/01/22 03:29:01;;;;;;;3.10;1.40;;;-2.80;64.60;;;;;;5073501;28;20276;-74
2024/01/22 03:31:30;;;;;;;3.80;1.63;;;-2.70;64.40;;;;;;5073568;28;20190;-74
2024/01/22 03:33:58;;;;;;;2.70;1.42;;;-2.60;64.10;;;;;;5073219;28;20221;-74
2024/01/22 03:36:26;;;;;;;5.15;1.80;;;-2.60;63.30;;;;;;5073695;28;20251;-74
2024/01/22 03:38:53;;;;;;;2.55;1.20;;;-2.60;62.60;;;;;;5073468;28;20293;-74
2024/01/22 03:41:20;;;;;;;2.30;1.20;;;-2.60;61.50;;;;;;5073205;28;20282;-73
2024/01/22 03:43:47;;;;;;;2.60;1.10;;;-2.60;62.60;;;;;;5073710;28;20273;-74
2024/01/22 03:46:15;;;;;;;2.97;1.40;;;-2.50;63.10;;;;;;5073018;28;20185;-74
2024/01/22 03:48:42;;;;;;;4.10;1.65;;;-2.50;63.20;;;;;;5092430;28;20580;-74
2024/01/22 03:51:11;;;;;;;6.60;3.05;;;-2.50;62.40;;;;;;5093634;28;20221;-74
2024/01/22 03:53:38;;;;;;;4.82;3.20;;;-2.50;61.00;;;;;;5093577;28;20220;-73
2024/01/22 03:56:05;;;;;;;4.57;2.35;;;-2.60;59.60;;;;;;5093588;28;20268;-73
2024/01/22 03:58:33;;;;;;;4.35;2.38;;;-2.60;59.30;;;;;;5093432;28;20201;-74
2024/01/22 04:01:01;;;;;;;3.22;2.20;;;-2.60;58.60;;;;;;5078841;28;20633;-74
2024/01/22 04:03:28;;;;;;;4.60;1.98;;;-2.70;57.60;;;;;;5072845;28;20229;-74
2024/01/22 04:05:55;;;;;;;3.10;1.70;;;-2.80;55.70;;;;;;5073337;28;20273;-74
2024/01/22 04:08:24;;;;;;;7.72;3.75;;;-2.90;55.70;;;;;;5073093;28;20240;-74
2024/01/22 04:10:50;;;;;;;5.75;2.80;;;-3.10;57.90;;;;;;5073513;28;20233;-74
2024/01/22 04:13:17;;;;;;;3.90;2.50;;;-3.30;59.20;;;;;;5073352;28;20592;-74
2024/01/22 04:15:44;;;;;;;3.65;2.00;;;-3.40;62.00;;;;;;5086029;28;20300;-74
2024/01/22 04:18:11;;;;;;;4.53;2.10;;;-3.40;63.50;;;;;;5090899;28;20606;-73
2024/01/22 04:20:38;;;;;;;6.10;2.35;;;-3.40;65.20;;;;;;5093060;28;20593;-74
2024/01/22 04:23:05;;;;;;;3.17;1.48;;;-3.40;65.70;;;;;;5093031;28;20277;-73
2024/01/22 04:25:34;;;;;;;3.83;1.52;;;-3.30;66.40;;;;;;5088185;28;20535;-74
2024/01/22 04:28:01;;;;;;;4.53;1.80;;;-3.20;66.80;;;;;;5072606;28;20281;-74
2024/01/22 04:30:28;;;;;;;2.60;1.00;;;-3.10;67.00;;;;;;5085906;28;20239;-74
2024/01/22 04:32:55;;;;;;;3.85;1.50;;;-3.00;66.80;;;;;;5092588;28;20280;-74
2024/01/22 04:35:21;;;;;;;2.45;1.13;;;-2.90;66.60;;;;;;5093008;28;20189;-74
2024/01/22 04:37:48;;;;;;;3.03;1.77;;;-2.80;66.50;;;;;;5093508;28;20202;-73
2024/01/22 04:40:16;;;;;;;3.30;1.45;;;-2.80;66.20;;;;;;5089229;28;20700;-74
2024/01/22 04:42:45;;;;;;;5.90;1.85;;;-2.70;66.10;;;;;;5076221;28;20190;-74
2024/01/22 04:45:12;;;;;;;3.15;1.58;;;-2.70;65.60;;;;;;5076144;28;20273;-74
2024/01/22 04:47:39;;;;;;;5.05;1.63;;;-2.60;65.20;;;;;;5091157;28;20194;-74
2024/01/22 04:50:07;;;;;;;3.80;1.85;;;-2.60;64.70;;;;;;5096435;28;20719;-74
2024/01/22 04:52:34;;;;;;;2.00;1.00;;;-2.60;64.30;;;;;;5096558;28;20220;-73
2024/01/22 04:55:00;;;;;;;3.10;1.50;;;-2.50;64.00;;;;;;5096712;28;20276;-74
2024/01/22 04:57:27;;;;;;;2.85;1.15;;;-2.50;63.60;;;;;;5096520;28;20217;-74
2024/01/22 04:59:59;;;;;;;5.85;1.52;;;-2.50;62.70;;;;;;5096615;28;20615;-74
2024/01/22 05:02:28;;;;;;;3.95;1.75;;;-2.50;61.80;;;;;;5094289;28;20643;-74
2024/01/22 05:04:57;;;;;;;5.40;3.13;;;-2.50;61.40;;;;;;5095646;28;20181;-74
2024/01/22 05:07:25;;;;;;;3.28;1.90;;;-2.50;61.30;;;;;;5096452;28;20219;-74
2024/01/22 05:09:57;;;;;;;3.72;1.75;;;-2.50;61.30;;;;;;5096219;28;20217;-74
2024/01/22 05:12:24;;;;;;;5.50;2.88;;;-2.50;61.60;;;;;;5096478;28;20500;-74
2024/01/22 05:14:51;;;;;;;2.90;1.33;;;-2.40;61.90;;;;;;5084520;28;20274;-73
2024/01/22 05:17:19;;;;;;;2.75;1.38;;;-2.40;61.80;;;;;;5075876;28;20186;-73
2024/01/22 05:19:46;;;;;;;2.53;1.00;;;-2.30;62.50;;;;;;5075520;28;20300;-74
2024/01/22 05:22:13;;;;;;;2.15;0.90;;;-2.20;62.90;;;;;;5090453;28;20209;-74
2024/01/22 05:24:40;;;;;;;2.28;1.15;;;-2.10;63.20;;;;;;5096089;28;20280;-74
2024/01/22 05:27:09;;;;;;;3.03;1.20;;;-1.90;63.10;;;;;;5096163;28;20273;-74
2024/01/22 05:29:36;;;;;;;2.60;0.75;;;-1.80;62.00;;;;;;5096010;28;20196;-74
2024/01/22 05:32:03;;;;;;;3.15;1.20;;;-1.60;62.00;;;;;;5095974;28;20197;-74
2024/01/22 05:34:31;;;;;;;2.60;1.20;;;-1.60;61.90;;;;;;5095651;28;20276;-74
2024/01/22 05:36:58;;;;;;;3.70;1.63;;;-1.50;62.10;;;;;;5078546;28;20660;-74
2024/01/22 05:39:27;;;;;;;3.20;1.73;;;-1.40;62.10;;;;;;5075588;28;20329;-75
2024/01/22 05:41:54;;;;;;;3.30;2.20;;;-1.30;62.00;;;;;;5075322;28;20278;-75
2024/01/22 05:44:21;;;;;;;12.25;2.28;;;-1.30;61.60;;;;;;5075404;28;20288;-74
2024/01/22 05:46:47;;;;;;;3.85;1.98;;;-1.20;61.80;;;;;;5075468;28;20591;-74
2024/01/22 05:49:15;;;;;;;4.47;3.17;;;-1.20;61.50;;;;;;5082508;28;20583;-74
2024/01/22 05:51:42;;;;;;;4.30;2.40;;;-1.10;60.90;;;;;;5080750;28;20194;-74
2024/01/22 05:54:09;;;;;;;3.85;2.40;;;-1.10;60.80;;;;;;5089104;28;20650;-73
2024/01/22 05:56:36;;;;;;;55.08;20.80;;;-1.10;61.00;;;;;;5095259;28;20670;-74
2024/01/22 05:59:04;;;;;;;12.68;5.18;;;-1.10;61.00;;;;;;5095410;28;20241;-74
2024/01/22 06:01:33;;;;;;;5.72;2.65;;;-1.00;60.70;;;;;;5096046;28;20186;-74
2024/01/22 06:04:02;;;;;;;4.93;2.05;;;-1.00;60.70;;;;;;5086744;28;20699;-74
2024/01/22 06:06:29;;;;;;;4.75;1.65;;;-1.00;60.60;;;;;;5076018;28;20182;-74
2024/01/22 06:08:57;;;;;;;2.83;1.30;;;-1.00;60.50;;;;;;5073291;28;20708;-74
2024/01/22 06:11:28;;;;;;;4.40;2.50;;;-1.00;60.50;;;;;;5074147;28;20280;-74
2024/01/22 06:13:56;;;;;;;3.88;1.50;;;-1.00;60.40;;;;;;5074428;28;20186;-74
2024/01/22 06:16:22;;;;;;;2.75;1.50;;;-1.00;60.20;;;;;;5074063;28;20250;-74
2024/01/22 06:18:49;;;;;;;3.40;1.30;;;-1.10;59.40;;;;;;5073869;28;20297;-74
2024/01/22 06:21:16;;;;;;;3.05;1.02;;;-1.10;58.90;;;;;;5083570;28;20213;-74
2024/01/22 06:23:44;;;;;;;2.78;1.05;;;-1.10;58.40;;;;;;5092185;28;20181;-73
2024/01/22 06:26:13;;;;;;;3.78;1.48;;;-1.10;58.10;;;;;;5094474;28;20221;-74
2024/01/22 06:28:42;;;;;;;2.65;1.38;;;-1.20;58.30;;;;;;5091048;28;20259;-74
2024/01/22 06:31:09;;;;;;;3.40;1.30;;;-1.20;58.80;;;;;;5094377;28;20194;-73
2024/01/22 06:33:36;;;;;;;4.70;1.23;;;-1.10;59.00;;;;;;5094310;28;20272;-74
2024/01/22 06:36:03;;;;;;;3.30;1.60;;;-1.10;59.30;;;;;;5083027;28;20225;-74
2024/01/22 06:38:30;;;;;;;4.15;2.03;;;-1.10;59.70;;;;;;5073731;28;20293;-74
2024/01/22 06:40:58;;;;;;;3.08;1.42;;;-1.10;60.20;;;;;;5073526;28;20724;-74
2024/01/22 06:43:26;;;;;;;4.20;1.88;;;-1.10;61.00;;;;;;5073866;28;20194;-74
2024/01/22 06:45:54;;;;;;;2.97;2.10;;;-1.00;61.50;;;;;;5074396;28;20277;-74
2024/01/22 06:48:22;;;;;;;4.53;2.70;;;-0.90;61.60;;;;;;5073262;28;20232;-74
2024/01/22 06:50:48;;;;;;;4.35;2.80;;;-0.90;61.70;;;;;;5083184;28;20188;-74
2024/01/22 06:53:15;;;;;;;5.93;4.07;;;-0.90;61.90;;;;;;5093296;28;20599;-74
2024/01/22 06:55:42;;;;;;;6.88;3.60;;;-0.80;62.40;;;;;;5093655;28;20536;-73
2024/01/22 06:58:09;;;;;;;8.50;5.05;;;-0.80;62.70;;;;;;5074694;28;20186;-74
2024/01/22 07:00:38;;;;;;;13.32;6.50;;;-0.70;63.20;;;;;;5073516;28;20187;-74
2024/01/22 07:03:05;;;;;;;9.40;5.53;;;-0.60;63.50;;;;;;5072508;28;20178;-74
2024/01/22 07:05:33;;;;;;;6.25;4.38;;;-0.60;63.80;;;;;;5072433;28;20632;-74
2024/01/22 07:08:00;;;;;;;9.88;4.25;;;-0.50;63.90;;;;;;5087779;28;20524;-74
2024/01/22 07:10:27;;;;;;;9.20;4.50;;;-0.50;63.70;;;;;;5081955;28;20268;-74
2024/01/22 07:12:54;;;;;;;6.82;4.05;;;-0.50;63.50;;;;;;5084530;28;20276;-73
2024/01/22 07:15:21;;;;;;;8.35;3.85;;;-0.50;63.00;;;;;;5093193;28;20618;-74
2024/01/22 07:17:50;;;;;;;5.97;4.40;;;-0.40;63.00;;;;;;5091082;28;20212;-74
2024/01/22 07:20:17;;;;;;;6.80;4.22;;;-0.40;63.50;;;;;;5090865;28;20216;-73
2024/01/22 07:22:44;;;;;;;7.60;4.07;;;-0.20;63.70;;;;;;5093454;28;20196;-74
2024/01/22 07:25:12;;;;;;;8.60;3.80;;;-0.20;63.60;;;;;;5087237;28;20277;-74
2024/01/22 07:27:39;;;;;;;5.32;3.75;;;-0.10;63.80;;;;;;5072543;28;20688;-74
2024/01/22 07:30:09;;;;;;;4.85;3.40;;;-0.10;63.40;;;;;;5072880;28;20190;-73
2024/01/22 07:32:37;;;;;;;7.15;4.28;;;-0.10;62.90;;;;;;5052964;28;20187;-74
2024/01/22 07:35:08;;;;;;;5.90;3.78;;;0.00;62.60;;;;;;5067931;28;20227;-74
2024/01/22 07:37:36;;;;;;;4.63;3.55;;;0.00;62.30;;;;;;5086387;28;20178;-74
2024/01/22 07:40:04;;;;;;;8.90;4.15;;;0.00;61.50;;;;;;5088102;28;20206;-73
2024/01/22 07:42:33;;;;;;;9.65;3.40;;;0.00;60.80;;;;;;5092489;28;20221;-74
2024/01/22 07:45:00;;;;;;;7.57;2.53;;;0.10;59.90;;;;;;5090742;28;20178;-74
2024/01/22 07:47:27;;;;;;;5.25;2.83;;;0.10;59.40;;;;;;5078866;28;20240;-74
2024/01/22 07:49:54;;;;;;;5.90;3.80;;;0.10;58.60;;;;;;5072188;28;20182;-74
2024/01/22 07:52:23;;;;;;;4.32;2.50;;;0.00;58.60;;;;;;5072016;28;20269;-73
2024/01/22 07:54:50;;;;;;;11.23;6.43;;;0.10;59.10;;;;;;5080625;28;20247;-73
2024/01/22 07:57:17;;;;;;;7.63;3.92;;;0.10;59.60;;;;;;5093031;28;20272;-74
2024/01/22 07:59:46;;;;;;;9.90;5.53;;;0.20;60.00;;;;;;5091952;28;20231;-74
2024/01/22 08:02:13;;;;;;;28.02;14.77;;;0.20;60.30;;;;;;5091719;28;20182;-74
2024/01/22 08:04:40;;;;;;;16.20;10.13;;;0.30;60.60;;;;;;5092887;28;20193;-74
2024/01/22 08:07:07;;;;;;;14.98;8.57;;;0.40;60.80;;;;;;5093069;28;20193;-74
2024/01/22 08:09:36;;;;;;;16.38;10.90;;;0.40;60.20;;;;;;5092862;28;20244;-73
2024/01/22 08:12:03;;;;;;;16.15;9.30;;;0.60;60.10;;;;;;5093015;28;20268;-73
2024/01/22 08:14:31;;;;;;;17.48;9.13;;;0.70;60.50;;;;;;5093479;28;20546;-74
2024/01/22 08:16:58;;;;;;;14.90;7.50;;;0.80;60.80;;;;;;5096867;28;20218;-73
2024/01/22 08:19:26;;;;;;;8.40;5.93;;;0.90;60.70;;;;;;5096553;28;20300;-72
2024/01/22 08:21:54;;;;;;;16.25;7.75;;;1.10;60.50;;;;;;5094394;28;20200;-73
2024/01/22 08:24:21;;;;;;;16.15;10.60;;;1.20;60.30;;;;;;5096922;28;20208;-73
2024/01/22 08:26:50;;;;;;;17.30;11.27;;;1.30;60.30;;;;;;5096645;28;20185;-73
2024/01/22 08:29:17;;;;;;;22.00;11.88;;;1.40;60.30;;;;;;5096367;28;20276;-73
2024/01/22 08:31:44;;;;;;;40.10;19.05;;;1.40;60.50;;;;;;5096395;28;20216;-73
2024/01/22 08:34:10;;;;;;;36.58;16.55;;;1.40;60.10;;;;;;5095162;28;20269;-73
2024/01/22 08:36:37;;;;;;;34.75;14.90;;;1.40;59.80;;;;;;5094231;28;20276;-73
2024/01/22 08:39:04;;;;;;;29.80;16.17;;;1.40;59.90;;;;;;5093917;28;20292;-72
2024/01/22 08:41:31;;;;;;;26.33;13.82;;;1.40;59.70;;;;;;5095794;28;20189;-72
2024/01/22 08:44:01;;;;;;;17.95;12.43;;;1.40;60.00;;;;;;5094608;28;20599;-73
2024/01/22 08:46:28;;;;;;;19.42;10.02;;;1.30;60.30;;;;;;5095229;28;20181;-73
2024/01/22 08:48:55;;;;;;;17.75;9.95;;;1.30;60.50;;;;;;5096442;28;20700;-72
2024/01/22 08:51:22;;;;;;;36.72;17.08;;;1.30;61.10;;;;;;5096111;28;20293;-73
2024/01/22 08:53:49;;;;;;;26.90;12.95;;;1.40;61.70;;;;;;5094972;28;20276;-73
2024/01/22 08:56:16;;;;;;;17.58;11.20;;;1.40;61.70;;;;;;5095850;28;20272;-73
2024/01/22 08:58:43;;;;;;;14.93;10.02;;;1.50;62.00;;;;;;5096021;28;20204;-73
2024/01/22 09:01:18;;;;;;;13.77;7.65;;;1.50;62.00;;;;;;5095495;28;20281;-73
2024/01/22 09:03:45;;;;;;;11.43;7.70;;;1.50;62.40;;;;;;5095466;28;20651;-73
2024/01/22 09:06:12;;;;;;;12.75;9.40;;;1.50;62.60;;;;;;5095880;28;20545;-73
2024/01/22 09:08:40;;;;;;;12.15;8.15;;;1.50;63.30;;;;;;5095836;28;20185;-72
2024/01/22 09:11:07;;;;;;;13.60;9.40;;;1.50;63.70;;;;;;5095315;28;20258;-73
2024/01/22 09:13:34;;;;;;;12.95;7.30;;;1.50;64.10;;;;;;5095254;28;20189;-73
2024/01/22 09:16:01;;;;;;;13.38;8.65;;;1.60;64.10;;;;;;5094997;28;20305;-72
2024/01/22 09:18:30;;;;;;;11.57;7.45;;;1.70;64.50;;;;;;5095107;28;20276;-73
2024/01/22 09:20:56;;;;;;;10.77;7.50;;;1.70;64.80;;;;;;5095192;28;20296;-73
2024/01/22 09:23:23;;;;;;;9.50;7.38;;;1.80;65.20;;;;;;5093775;28;20231;-73
2024/01/22 09:25:51;;;;;;;7.65;4.70;;;1.90;65.40;;;;;;5095084;28;20268;-73
2024/01/22 09:28:20;;;;;;;8.63;4.18;;;2.00;65.30;;;;;;5094976;28;20216;-73
2024/01/22 09:30:47;;;;;;;6.30;3.60;;;2.20;63.90;;;;;;5094682;28;20662;-73
2024/01/22 09:33:14;;;;;;;5.82;4.22;;;2.30;62.40;;;;;;5095416;28;20228;-73
2024/01/22 09:35:42;;;;;;;8.23;5.07;;;2.50;62.30;;;;;;5095024;28;20702;-73
2024/01/22 09:38:09;;;;;;;6.95;3.80;;;2.60;62.60;;;;;;5093530;28;20276;-73
2024/01/22 09:40:37;;;;;;;3.97;2.65;;;2.70;62.90;;;;;;5094676;28;20210;-73
2024/01/22 09:43:04;;;;;;;6.88;3.13;;;2.80;61.30;;;;;;5095030;28;20285;-74
2024/01/22 09:45:33;;;;;;;7.10;3.90;;;2.90;62.10;;;;;;5094705;28;20188;-74
2024/01/22 09:48:00;;;;;;;6.45;3.72;;;3.10;61.40;;;;;;5095352;28;20221;-74
2024/01/22 09:50:28;;;;;;;6.38;3.85;;;3.20;61.00;;;;;;5094956;28;20224;-73
2024/01/22 09:53:01;;;;;;;5.05;3.42;;;3.40;61.50;;;;;;5094205;28;20561;-74
2024/01/22 09:55:28;;;;;;;11.57;8.00;;;3.50;60.90;;;;;;5094500;28;20181;-74
2024/01/22 09:58:00;;;;;;;40.63;21.50;;;3.60;60.40;;;;;;5094162;28;20276;-74
2024/01/22 10:00:27;;;;;;;36.13;20.33;;;3.70;61.20;;;;;;5094563;28;20533;-74
2024/01/22 10:02:56;;;;;;;12.25;7.00;;;3.70;62.00;;;;;;5094201;28;20197;-74
2024/01/22 10:05:23;;;;;;;10.70;5.93;;;3.70;62.80;;;;;;5093918;28;20280;-74
2024/01/22 10:07:50;;;;;;;4.00;2.78;;;3.90;63.30;;;;;;5093849;28;20640;-74
2024/01/22 10:10:20;;;;;;;5.15;3.60;;;3.90;62.20;;;;;;5094259;28;20273;-74
2024/01/22 10:13:02;;;;;;;14.07;6.95;;;4.00;62.40;;;;;;5094236;28;20177;-75
2024/01/22 10:15:31;;;;;;;9.45;5.45;;;4.20;57.70;;;;;;5093738;28;20252;-74
2024/01/22 10:18:12;;;;;;;8.93;5.18;;;4.40;56.50;;;;;;5094158;28;20177;-74
2024/01/22 10:20:41;;;;;;;7.78;5.25;;;4.50;56.80;;;;;;5087157;28;20289;-75
2024/01/22 10:23:12;;;;;;;7.70;5.28;;;4.60;57.30;;;;;;5093645;28;20193;-74
2024/01/22 10:25:42;;;;;;;7.10;4.65;;;4.70;57.60;;;;;;5093803;28;20192;-74
2024/01/22 10:28:16;;;;;;;9.20;5.20;;;4.90;57.90;;;;;;5092762;28;20192;-74
2024/01/22 10:30:44;;;;;;;4.15;2.35;;;5.00;58.30;;;;;;5093534;28;20180;-75
2024/01/22 10:33:18;;;;;;;3.85;2.03;;;5.10;57.30;;;;;;5093772;28;20276;-75
2024/01/22 10:35:47;;;;;;;3.67;1.95;;;5.20;56.60;;;;;;5093454;28;20200;-74
2024/01/22 10:38:16;;;;;;;3.05;1.70;;;5.30;56.00;;;;;;5093005;28;20277;-74
2024/01/22 10:40:46;;;;;;;3.75;2.03;;;5.40;54.60;;;;;;5093776;28;20220;-74
2024/01/22 10:43:26;;;;;;;3.70;2.42;;;5.50;55.50;;;;;;5092973;28;20190;-74
2024/01/22 10:45:54;;;;;;;4.70;2.00;;;5.50;56.10;;;;;;5092650;28;20173;-74
2024/01/22 10:48:24;;;;;;;6.07;2.53;;;5.60;56.50;;;;;;5092872;28;20225;-74
2024/01/22 10:50:51;;;;;;;4.45;3.10;;;5.70;56.90;;;;;;5093535;28;20178;-74
2024/01/22 10:53:19;;;;;;;3.63;2.47;;;5.70;57.20;;;;;;5093284;28;20189;-75
2024/01/22 10:55:58;;;;;;;5.45;2.40;;;5.70;57.20;;;;;;5093409;28;20593;-74
2024/01/22 10:58:27;;;;;;;4.25;2.30;;;5.70;56.60;;;;;;5093325;28;20256;-73
2024/01/22 11:00:58;;;;;;;2.70;1.60;;;5.70;56.50;;;;;;5093364;28;20231;-74
2024/01/22 11:03:28;;;;;;;5.43;2.70;;;5.80;56.20;;;;;;5093007;28;20265;-74
2024/01/22 11:05:59;;;;;;;4.35;1.92;;;5.80;56.20;;;;;;5093244;28;20260;-75
2024/01/22 11:08:29;;;;;;;5.35;1.70;;;5.80;56.20;;;;;;5093157;28;20227;-74
2024/01/22 11:10:59;;;;;;;2.88;1.83;;;5.80;55.40;;;;;;5093273;28;20537;-74
2024/01/22 11:13:28;;;;;;;4.25;1.80;;;5.90;54.10;;;;;;5092856;28;20664;-74
2024/01/22 11:15:56;;;;;;;4.40;2.40;;;5.90;53.80;;;;;;5092731;28;20252;-74
2024/01/22 11:18:23;;;;;;;3.20;1.70;;;5.90;53.60;;;;;;5092756;28;20197;-74
2024/01/22 11:20:57;;;;;;;4.25;2.55;;;5.90;53.10;;;;;;5092737;28;20655;-75
2024/01/22 11:23:26;;;;;;;15.95;12.30;;;5.90;52.60;;;;;;5092904;28;20184;-73
2024/01/22 11:26:09;;;;;;;6.95;4.90;;;5.90;53.00;;;;;;5092825;28;20193;-73
2024/01/22 11:28:36;;;;;;;4.22;2.20;;;5.90;53.20;;;;;;5093122;28;20209;-72
2024/01/22 11:31:04;;;;;;;3.58;2.63;;;6.00;53.10;;;;;;5093104;28;20211;-72
2024/01/22 11:33:33;;;;;;;12.05;9.05;;;6.00;52.90;;;;;;5093014;28;20220;-73
2024/01/22 11:36:04;;;;;;;8.35;2.72;;;6.00;52.70;;;;;;5092466;28;20707;-72
2024/01/22 11:38:51;;;;;;;11.23;7.60;;;6.10;52.10;;;;;;5092150;28;20180;-75
2024/01/22 11:41:34;;;;;;;4.70;3.15;;;6.10;52.50;;;;;;5092720;28;20209;-74
2024/01/22 11:44:01;;;;;;;11.43;3.25;;;6.10;52.50;;;;;;5092459;28;20181;-74
2024/01/22 11:46:28;;;;;;;6.75;3.53;;;6.20;53.00;;;;;;5092419;28;20220;-74
2024/01/22 11:48:55;;;;;;;4.45;2.80;;;6.20;52.80;;;;;;5094413;28;20292;-75
2024/01/22 11:51:26;;;;;;;4.55;3.90;;;6.20;51.80;;;;;;5094552;28;20224;-73
2024/01/22 11:53:55;;;;;;;4.45;2.58;;;6.30;52.00;;;;;;5095141;28;20189;-74
2024/01/22 11:56:22;;;;;;;6.25;2.70;;;6.30;51.20;;;;;;5096912;28;20254;-74
2024/01/22 11:59:09;;;;;;;4.50;2.75;;;6.40;51.70;;;;;;5096632;28;20523;-75
2024/01/22 12:01:35;;;;;;;4.57;2.90;;;6.40;51.40;;;;;;5096659;28;20293;-75
2024/01/22 12:04:09;;;;;;;5.90;2.60;;;6.40;51.20;;;;;;5096383;28;20231;-74
2024/01/22 12:06:48;;;;;;;7.32;3.28;;;6.60;51.40;;;;;;5096591;28;20178;-75
2024/01/22 12:09:17;;;;;;;6.30;3.33;;;6.90;52.00;;;;;;5091611;28;20205;-75
2024/01/22 12:11:52;;;;;;;5.28;3.53;;;7.10;52.30;;;;;;5084795;28;20181;-75
2024/01/22 12:14:20;;;;;;;4.90;3.17;;;7.20;52.00;;;;;;5096305;28;20174;-75
2024/01/22 12:16:47;;;;;;;4.32;2.45;;;7.30;50.80;;;;;;5095775;28;20654;-74
2024/01/22 12:19:14;;;;;;;6.57;3.60;;;7.50;50.00;;;;;;5095783;28;20186;-74
2024/01/22 12:21:41;;;;;;;8.15;3.80;;;7.60;50.20;;;;;;5086772;28;20209;-74
2024/01/22 12:24:14;;;;;;;4.40;2.50;;;7.70;50.50;;;;;;5074750;28;20235;-74
2024/01/22 12:26:41;;;;;;;6.20;3.38;;;7.80;50.30;;;;;;5077521;28;20213;-74
2024/01/22 12:29:08;;;;;;;7.75;4.38;;;8.00;48.50;;;;;;5085997;28;20248;-75
2024/01/22 12:31:36;;;;;;;7.50;4.03;;;8.00;48.60;;;;;;5077765;28;20592;-74
2024/01/22 12:34:10;;;;;;;5.57;3.33;;;8.10;48.30;;;;;;5076877;28;20707;-75
2024/01/22 12:36:37;;;;;;;7.65;3.25;;;8.10;47.40;;;;;;5082726;28;20180;-74
2024/01/22 12:39:07;;;;;;;6.60;2.97;;;8.10;47.20;;;;;;5096205;28;20244;-74
2024/01/22 12:41:35;;;;;;;9.93;6.05;;;8.00;48.00;;;;;;5095761;28;20237;-74
2024/01/22 12:44:02;;;;;;;10.38;6.15;;;7.90;48.40;;;;;;5083654;28;20684;-74
2024/01/22 12:46:31;;;;;;;11.15;6.28;;;7.80;48.30;;;;;;5074813;28;20521;-74
2024/01/22 12:48:59;;;;;;;10.30;4.85;;;7.80;48.40;;;;;;5075347;28;20194;-74
2024/01/22 12:51:27;;;;;;;5.05;3.00;;;7.70;48.90;;;;;;5075050;28;20475;-74